Time;durP1;ratioP1;P1;durP2;ratioP2;P2;SDS_P1;SDS_P2;PMS_P1;PMS_P2;Temp;Humidity;BMP_temperature;BMP_pressure;BME280_temperature;BME280_humidity;BME280_pressure;Samples;Min_cycle;Max_cycle;Signal;HPM_P1;HPM_P2
2023/05/20 00:00:32;;;;;;;4.20;1.73;;;13.00;99.90;;;;;;5099774;28;20187;-42
2023/05/20 00:02:59;;;;;;;3.93;1.97;;;13.00;99.90;;;;;;5098612;28;20203;-45
2023/05/20 00:05:25;;;;;;;4.70;2.17;;;12.90;99.90;;;;;;5095746;28;20210;-45
2023/05/20 00:07:50;;;;;;;4.20;1.90;;;12.90;99.90;;;;;;5096171;28;20227;-46
2023/05/20 00:10:16;;;;;;;7.77;2.53;;;12.90;99.90;;;;;;5096525;28;20275;-44
2023/05/20 00:12:41;;;;;;;5.40;2.00;;;12.90;99.90;;;;;;5095229;28;20190;-44
2023/05/20 00:15:08;;;;;;;5.37;1.90;;;12.80;99.90;;;;;;5096196;28;20250;-45
2023/05/20 00:17:33;;;;;;;4.43;1.83;;;12.80;99.90;;;;;;5096208;28;20206;-44
2023/05/20 00:19:59;;;;;;;4.57;1.83;;;12.70;99.90;;;;;;5097502;28;20229;-43
2023/05/20 00:22:24;;;;;;;2.80;2.30;;;12.70;99.90;;;;;;5096199;28;20201;-43
2023/05/20 00:24:50;;;;;;;10.03;2.33;;;12.70;99.90;;;;;;5096569;28;20179;-44
2023/05/20 00:27:16;;;;;;;7.83;2.00;;;12.70;99.90;;;;;;5096362;28;20183;-46
2023/05/20 00:29:41;;;;;;;7.27;2.20;;;12.70;99.90;;;;;;5096274;28;20181;-46
2023/05/20 00:32:07;;;;;;;5.03;2.37;;;12.60;99.90;;;;;;5095937;28;20212;-42
2023/05/20 00:34:32;;;;;;;4.87;2.13;;;12.60;99.90;;;;;;5096045;28;20225;-45
2023/05/20 00:36:58;;;;;;;2.50;1.90;;;12.60;99.90;;;;;;5095780;28;20171;-45
2023/05/20 00:39:24;;;;;;;4.67;2.07;;;12.60;99.90;;;;;;5095549;28;20187;-44
2023/05/20 00:41:49;;;;;;;2.80;2.03;;;12.50;99.90;;;;;;5095651;28;20184;-44
2023/05/20 00:44:17;;;;;;;4.23;2.20;;;12.50;99.90;;;;;;5094257;28;20248;-43
2023/05/20 00:46:43;;;;;;;4.37;1.90;;;12.50;99.90;;;;;;5095501;28;20574;-42
2023/05/20 00:49:09;;;;;;;5.63;2.20;;;12.50;99.90;;;;;;5095361;28;20689;-42
2023/05/20 00:51:35;;;;;;;8.00;2.23;;;12.40;99.90;;;;;;5095578;28;20171;-43
2023/05/20 00:54:00;;;;;;;5.93;2.30;;;12.40;99.90;;;;;;5095516;28;20315;-42
2023/05/20 00:56:26;;;;;;;9.03;2.70;;;12.40;99.90;;;;;;5095327;28;20209;-45
2023/05/20 00:58:52;;;;;;;4.23;2.00;;;12.30;99.90;;;;;;5095376;28;20258;-42
2023/05/20 01:01:18;;;;;;;6.27;1.87;;;12.20;99.90;;;;;;5095215;28;20587;-43
2023/05/20 01:03:43;;;;;;;7.70;2.20;;;12.20;99.90;;;;;;5095638;28;20198;-43
2023/05/20 01:06:09;;;;;;;5.77;2.17;;;12.20;99.90;;;;;;5095140;28;20240;-45
2023/05/20 01:08:35;;;;;;;3.33;2.10;;;12.10;99.90;;;;;;5095286;28;20206;-41
2023/05/20 01:11:16;;;;;;;8.47;2.17;;;12.10;99.90;;;;;;5095604;28;20177;-42
2023/05/20 01:13:45;;;;;;;3.73;2.03;;;12.00;99.90;;;;;;5094868;28;20195;-43
2023/05/20 01:16:13;;;;;;;7.30;2.03;;;12.00;99.90;;;;;;5094715;28;20163;-42
2023/05/20 01:18:42;;;;;;;4.00;2.50;;;12.00;99.90;;;;;;5094871;28;20211;-44
2023/05/20 01:21:12;;;;;;;6.87;2.30;;;12.00;99.90;;;;;;5094842;28;20217;-45
2023/05/20 01:23:41;;;;;;;3.30;2.10;;;11.90;99.90;;;;;;5095051;28;20203;-44
2023/05/20 01:26:07;;;;;;;3.03;2.17;;;11.90;99.90;;;;;;5094938;28;20179;-42
2023/05/20 01:28:37;;;;;;;4.40;2.27;;;11.90;99.90;;;;;;5094640;28;20187;-44
2023/05/20 01:31:05;;;;;;;8.53;2.40;;;11.90;99.90;;;;;;5095437;28;20261;-44
2023/05/20 01:33:34;;;;;;;3.20;2.10;;;11.90;99.90;;;;;;5094719;28;20216;-42
2023/05/20 01:36:00;;;;;;;8.90;2.30;;;11.90;99.90;;;;;;5094847;28;20171;-43
2023/05/20 01:38:26;;;;;;;8.17;1.80;;;11.90;99.90;;;;;;5094762;28;20193;-45
2023/05/20 01:40:54;;;;;;;13.03;2.30;;;11.90;99.90;;;;;;5094425;28;20236;-43
2023/05/20 01:43:20;;;;;;;6.10;2.30;;;11.90;99.90;;;;;;5094341;28;20277;-42
2023/05/20 01:45:46;;;;;;;12.20;2.53;;;11.90;99.90;;;;;;5094647;28;20183;-44
2023/05/20 01:48:12;;;;;;;5.13;2.57;;;11.90;99.90;;;;;;5094499;28;20276;-43
2023/05/20 01:50:38;;;;;;;11.97;3.00;;;12.00;99.90;;;;;;5094728;28;20631;-45
2023/05/20 01:53:07;;;;;;;7.87;2.43;;;12.00;99.90;;;;;;5094474;28;20240;-41
2023/05/20 01:55:33;;;;;;;6.00;2.17;;;11.90;99.90;;;;;;5094496;28;20179;-45
2023/05/20 01:57:58;;;;;;;11.10;2.67;;;11.90;99.90;;;;;;5094130;28;20183;-45
2023/05/20 02:00:24;;;;;;;6.37;2.73;;;11.90;99.90;;;;;;5094632;28;20236;-43
2023/05/20 02:02:49;;;;;;;6.90;2.20;;;11.90;99.90;;;;;;5094294;28;20226;-43
2023/05/20 02:05:15;;;;;;;6.67;2.00;;;11.90;99.90;;;;;;5094324;28;20609;-44
2023/05/20 02:07:41;;;;;;;3.63;2.40;;;11.90;99.90;;;;;;5094206;28;20198;-47
2023/05/20 02:10:07;;;;;;;2.97;1.90;;;11.90;99.90;;;;;;5094752;28;20171;-45
2023/05/20 02:12:33;;;;;;;3.27;1.83;;;11.80;99.90;;;;;;5093826;28;20171;-42
2023/05/20 02:14:58;;;;;;;5.33;2.50;;;11.80;99.90;;;;;;5094129;28;20538;-43
2023/05/20 02:17:25;;;;;;;4.90;2.40;;;11.80;99.90;;;;;;5093808;28;20608;-43
2023/05/20 02:19:50;;;;;;;6.10;2.60;;;11.80;99.90;;;;;;5093748;28;20635;-44
2023/05/20 02:22:16;;;;;;;3.93;2.33;;;11.70;99.90;;;;;;5094233;28;20229;-43
2023/05/20 02:24:42;;;;;;;6.97;2.37;;;11.70;99.90;;;;;;5093746;28;20217;-45
2023/05/20 02:27:07;;;;;;;7.07;2.30;;;11.80;99.90;;;;;;5093117;28;20183;-43
2023/05/20 02:29:33;;;;;;;5.63;2.40;;;11.70;99.90;;;;;;5093868;28;20199;-43
2023/05/20 02:31:59;;;;;;;5.63;2.40;;;11.80;99.90;;;;;;5093839;28;20179;-44
2023/05/20 02:34:28;;;;;;;4.67;2.30;;;11.70;99.90;;;;;;5093779;28;20260;-43
2023/05/20 02:36:55;;;;;;;4.30;2.60;;;11.70;99.90;;;;;;5093815;28;20167;-44
2023/05/20 02:39:21;;;;;;;5.67;2.43;;;11.70;99.90;;;;;;5093583;28;20194;-42
2023/05/20 02:41:46;;;;;;;4.07;2.17;;;11.60;99.90;;;;;;5093435;28;20697;-45
2023/05/20 02:44:12;;;;;;;5.13;2.50;;;11.70;99.90;;;;;;5093626;28;20199;-44
2023/05/20 02:46:38;;;;;;;4.73;2.00;;;11.60;99.90;;;;;;5093725;28;20224;-45
2023/05/20 02:49:03;;;;;;;3.93;2.37;;;11.60;99.90;;;;;;5093371;28;20582;-44
2023/05/20 02:51:30;;;;;;;7.10;2.37;;;11.50;99.90;;;;;;5093624;28;20174;-46
2023/05/20 02:53:56;;;;;;;5.13;2.90;;;11.50;99.90;;;;;;5093446;28;20217;-45
2023/05/20 02:56:23;;;;;;;5.47;2.50;;;11.40;99.90;;;;;;5093611;28;20167;-44
2023/05/20 02:58:49;;;;;;;8.67;2.43;;;11.40;99.90;;;;;;5093486;28;20190;-43
2023/05/20 03:01:14;;;;;;;3.00;2.10;;;11.40;99.90;;;;;;5093325;28;20187;-42
2023/05/20 03:03:41;;;;;;;5.03;2.60;;;11.30;99.90;;;;;;5093459;28;20222;-44
2023/05/20 03:06:07;;;;;;;4.23;2.13;;;11.30;99.90;;;;;;5093536;28;20572;-44
2023/05/20 03:08:35;;;;;;;8.77;2.50;;;11.20;99.90;;;;;;5093442;28;20224;-43
2023/05/20 03:11:00;;;;;;;3.20;2.20;;;11.10;99.90;;;;;;5093483;28;20253;-42
2023/05/20 03:13:26;;;;;;;3.57;2.43;;;11.10;99.90;;;;;;5093396;28;20301;-43
2023/05/20 03:15:52;;;;;;;6.83;3.10;;;11.10;99.90;;;;;;5093727;28;20179;-42
2023/05/20 03:18:17;;;;;;;5.70;2.40;;;11.20;99.90;;;;;;5093251;28;20265;-46
2023/05/20 03:20:43;;;;;;;5.50;2.50;;;11.10;99.90;;;;;;5093238;28;20594;-45
2023/05/20 03:23:09;;;;;;;5.27;2.33;;;11.20;99.90;;;;;;5093007;28;20216;-42
2023/05/20 03:25:36;;;;;;;6.37;2.80;;;11.20;99.90;;;;;;5093021;28;20630;-46
2023/05/20 03:28:02;;;;;;;7.00;2.43;;;11.20;99.90;;;;;;5093236;28;20576;-44
2023/05/20 03:30:27;;;;;;;6.57;2.80;;;11.20;99.90;;;;;;5093095;28;20179;-43
2023/05/20 03:32:55;;;;;;;4.53;2.40;;;11.10;99.90;;;;;;5092977;28;20605;-44
2023/05/20 03:35:20;;;;;;;4.67;2.63;;;11.10;99.90;;;;;;5092953;28;20183;-43
2023/05/20 03:37:46;;;;;;;3.97;2.43;;;11.00;99.90;;;;;;5092939;28;20182;-43
2023/05/20 03:40:12;;;;;;;5.00;2.60;;;11.00;99.90;;;;;;5095700;28;20194;-41
2023/05/20 03:42:38;;;;;;;4.20;2.87;;;10.90;99.90;;;;;;5096872;28;20673;-42
2023/05/20 03:45:05;;;;;;;6.50;3.10;;;10.90;99.90;;;;;;5097562;28;20216;-44
2023/05/20 03:47:31;;;;;;;4.07;2.90;;;10.80;99.90;;;;;;5096604;28;20183;-46
2023/05/20 03:49:57;;;;;;;7.93;3.10;;;10.80;99.90;;;;;;5096599;28;20191;-43
2023/05/20 03:52:22;;;;;;;3.77;2.43;;;10.80;99.90;;;;;;5112221;28;20179;-43
2023/05/20 03:54:48;;;;;;;8.23;2.70;;;10.80;99.90;;;;;;5096515;28;20321;-43
2023/05/20 03:57:14;;;;;;;4.70;3.20;;;10.80;99.90;;;;;;5096517;28;20175;-45
2023/05/20 03:59:40;;;;;;;6.30;2.60;;;10.80;99.90;;;;;;5096691;28;20174;-45
2023/05/20 04:02:06;;;;;;;7.60;2.97;;;10.80;99.90;;;;;;5096628;28;20541;-43
2023/05/20 04:04:32;;;;;;;7.33;3.33;;;10.70;99.90;;;;;;5096609;28;20186;-41
2023/05/20 04:07:02;;;;;;;6.27;3.30;;;10.80;99.90;;;;;;5096342;28;20177;-42
2023/05/20 04:09:27;;;;;;;5.30;3.10;;;10.70;99.90;;;;;;5096449;28;20213;-44
2023/05/20 04:11:53;;;;;;;5.87;3.23;;;10.70;99.90;;;;;;5096245;28;20194;-45
2023/05/20 04:14:18;;;;;;;5.17;3.07;;;10.70;99.90;;;;;;5096174;28;20568;-44
2023/05/20 04:16:44;;;;;;;8.00;3.17;;;10.70;99.90;;;;;;5096445;28;20672;-43
2023/05/20 04:19:11;;;;;;;5.57;3.10;;;10.70;99.90;;;;;;5096384;28;20315;-46
2023/05/20 04:21:37;;;;;;;5.33;3.00;;;10.70;99.90;;;;;;5096293;28;20189;-47
2023/05/20 04:24:02;;;;;;;6.00;2.97;;;10.70;99.90;;;;;;5096294;28;20553;-43
2023/05/20 04:26:28;;;;;;;6.07;3.27;;;10.70;99.90;;;;;;5096289;28;20189;-44
2023/05/20 04:28:57;;;;;;;4.83;3.17;;;10.70;99.90;;;;;;5095999;28;20206;-44
2023/05/20 04:31:25;;;;;;;9.43;3.20;;;10.70;99.90;;;;;;5096155;28;20179;-44
2023/05/20 04:33:54;;;;;;;5.70;3.03;;;10.80;99.90;;;;;;5096031;28;20194;-46
2023/05/20 04:36:19;;;;;;;8.03;2.93;;;10.80;99.90;;;;;;5095742;28;20269;-45
2023/05/20 04:38:47;;;;;;;7.00;2.73;;;10.80;99.90;;;;;;5095605;28;20179;-42
2023/05/20 04:41:12;;;;;;;8.20;3.47;;;10.80;99.90;;;;;;5095648;28;20258;-45
2023/05/20 04:43:38;;;;;;;5.93;3.57;;;10.80;99.90;;;;;;5095839;28;20233;-45
2023/05/20 04:46:04;;;;;;;6.83;3.20;;;10.90;99.90;;;;;;5095839;28;20227;-45
2023/05/20 04:48:31;;;;;;;5.37;3.03;;;10.90;99.90;;;;;;5095680;28;20207;-45
2023/05/20 04:50:56;;;;;;;4.80;3.40;;;10.80;99.90;;;;;;5094984;28;20182;-45
2023/05/20 04:53:22;;;;;;;4.17;2.73;;;10.90;99.90;;;;;;5095370;28;20555;-44
2023/05/20 04:55:48;;;;;;;4.00;2.80;;;10.90;99.90;;;;;;5096113;28;20186;-44
2023/05/20 04:58:16;;;;;;;7.23;3.37;;;10.90;99.90;;;;;;5095450;28;20235;-44
2023/05/20 05:00:44;;;;;;;5.13;2.53;;;11.00;99.90;;;;;;5095586;28;20185;-47
2023/05/20 05:03:14;;;;;;;5.00;2.67;;;11.00;99.90;;;;;;5095471;28;20284;-43
2023/05/20 05:05:40;;;;;;;5.30;2.60;;;11.10;99.90;;;;;;5095986;28;20199;-44
2023/05/20 05:08:07;;;;;;;4.90;2.77;;;11.20;99.90;;;;;;5095501;28;20201;-44
2023/05/20 05:10:33;;;;;;;3.77;2.60;;;11.30;99.90;;;;;;5095988;28;20541;-46
2023/05/20 05:12:58;;;;;;;7.77;3.03;;;11.30;99.90;;;;;;5095732;28;20195;-46
2023/05/20 05:15:24;;;;;;;6.33;2.63;;;11.40;99.90;;;;;;5095085;28;20181;-45
2023/05/20 05:17:50;;;;;;;4.50;2.80;;;11.50;99.90;;;;;;5095293;28;20214;-43
2023/05/20 05:20:16;;;;;;;8.30;2.53;;;11.60;99.90;;;;;;5095193;28;20190;-44
2023/05/20 05:22:42;;;;;;;3.30;2.50;;;11.70;99.90;;;;;;5094862;28;20259;-42
2023/05/20 05:25:09;;;;;;;4.43;2.97;;;11.70;99.90;;;;;;5094740;28;20658;-41
2023/05/20 05:27:35;;;;;;;10.10;3.00;;;11.80;99.90;;;;;;5094937;28;20206;-43
2023/05/20 05:30:02;;;;;;;5.37;2.53;;;11.80;99.90;;;;;;5094917;28;20206;-44
2023/05/20 05:32:27;;;;;;;3.87;2.47;;;11.80;99.90;;;;;;5094579;28;20178;-44
2023/05/20 05:34:53;;;;;;;3.83;2.60;;;11.90;99.90;;;;;;5094834;28;20658;-46
2023/05/20 05:37:19;;;;;;;6.37;2.50;;;11.90;99.90;;;;;;5094819;28;20210;-42
2023/05/20 05:39:44;;;;;;;9.63;3.17;;;11.90;99.90;;;;;;5094540;28;20189;-40
2023/05/20 05:42:10;;;;;;;7.90;2.60;;;11.90;99.90;;;;;;5094491;28;20175;-43
2023/05/20 05:44:35;;;;;;;9.50;3.20;;;11.90;99.90;;;;;;5094612;28;20229;-43
2023/05/20 05:47:01;;;;;;;5.03;2.80;;;11.90;99.90;;;;;;5093386;28;20178;-43
2023/05/20 05:49:27;;;;;;;5.57;2.70;;;12.00;99.90;;;;;;5094564;28;20287;-47
2023/05/20 05:51:52;;;;;;;5.10;2.63;;;12.10;99.90;;;;;;5094406;28;20179;-43
2023/05/20 05:54:19;;;;;;;5.93;3.07;;;12.30;99.90;;;;;;5094439;28;20202;-43
2023/05/20 05:56:45;;;;;;;3.57;2.53;;;12.40;99.90;;;;;;5094427;28;20178;-46
2023/05/20 05:59:11;;;;;;;3.57;2.70;;;12.50;99.90;;;;;;5094563;28;20189;-46
2023/05/20 06:01:36;;;;;;;3.60;2.23;;;12.50;99.90;;;;;;5093446;28;20182;-46
2023/05/20 06:04:02;;;;;;;4.30;2.60;;;12.60;99.90;;;;;;5094097;28;20287;-46
2023/05/20 06:06:28;;;;;;;3.03;2.47;;;12.80;99.90;;;;;;5094372;28;20187;-44
2023/05/20 06:08:54;;;;;;;2.80;2.33;;;12.80;99.90;;;;;;5094055;28;20199;-42
2023/05/20 06:11:21;;;;;;;3.97;3.00;;;12.90;99.90;;;;;;5094416;28;20257;-42
2023/05/20 06:13:47;;;;;;;4.87;2.73;;;13.00;99.90;;;;;;5094114;28;20203;-44
2023/05/20 06:16:12;;;;;;;8.70;2.90;;;13.00;99.90;;;;;;5093997;28;20616;-44
2023/05/20 06:18:38;;;;;;;6.97;2.37;;;13.10;99.90;;;;;;5093874;28;20175;-44
2023/05/20 06:21:04;;;;;;;4.20;2.47;;;13.20;99.90;;;;;;5093943;28;20228;-43
2023/05/20 06:23:30;;;;;;;5.07;2.47;;;13.30;99.90;;;;;;5093707;28;20195;-45
2023/05/20 06:25:59;;;;;;;4.93;2.40;;;13.50;99.90;;;;;;5094097;28;20255;-43
2023/05/20 06:28:25;;;;;;;4.17;2.77;;;13.60;99.90;;;;;;5093945;28;20647;-44
2023/05/20 06:30:53;;;;;;;4.60;2.80;;;13.70;99.90;;;;;;5093773;28;20171;-41
2023/05/20 06:33:19;;;;;;;7.53;2.57;;;13.80;99.90;;;;;;5093717;28;20554;-42
2023/05/20 06:35:44;;;;;;;7.87;2.67;;;13.90;99.90;;;;;;5093910;28;20249;-45
2023/05/20 06:38:10;;;;;;;6.17;2.70;;;13.90;99.90;;;;;;5093639;28;20179;-45
2023/05/20 06:40:35;;;;;;;4.17;2.70;;;14.00;99.90;;;;;;5093693;28;20195;-45
2023/05/20 06:43:01;;;;;;;6.20;2.63;;;14.20;99.90;;;;;;5093515;28;20198;-46
2023/05/20 06:45:26;;;;;;;5.10;2.83;;;14.30;99.90;;;;;;5094032;28;20537;-45
2023/05/20 06:47:53;;;;;;;2.87;2.03;;;14.40;99.90;;;;;;5093802;28;20199;-45
2023/05/20 06:50:18;;;;;;;5.63;2.13;;;14.40;99.90;;;;;;5094320;28;20234;-47
2023/05/20 06:52:44;;;;;;;7.23;2.97;;;14.50;99.90;;;;;;5093668;28;20293;-44
2023/05/20 06:55:10;;;;;;;3.80;2.50;;;14.50;99.90;;;;;;5093886;28;20182;-43
2023/05/20 06:57:35;;;;;;;6.00;3.30;;;14.50;99.90;;;;;;5093667;28;20179;-46
2023/05/20 07:00:02;;;;;;;4.43;2.77;;;14.50;99.90;;;;;;5093369;28;20182;-44
2023/05/20 07:02:28;;;;;;;5.83;2.67;;;14.40;99.90;;;;;;5093490;28;20175;-46
2023/05/20 07:04:53;;;;;;;6.70;2.73;;;14.40;99.90;;;;;;5097134;28;20203;-44
2023/05/20 07:07:19;;;;;;;3.67;2.40;;;14.40;99.90;;;;;;5093258;28;20230;-46
2023/05/20 07:09:45;;;;;;;4.93;2.67;;;14.40;99.90;;;;;;5093237;28;20203;-43
2023/05/20 07:12:10;;;;;;;4.73;2.70;;;14.50;99.90;;;;;;5093352;28;20178;-43
2023/05/20 07:14:36;;;;;;;5.10;2.60;;;14.70;99.90;;;;;;5096881;28;20209;-47
2023/05/20 07:17:01;;;;;;;3.47;2.40;;;14.70;99.90;;;;;;5097651;28;20208;-43
2023/05/20 07:19:27;;;;;;;8.37;2.37;;;14.80;99.90;;;;;;5097255;28;20183;-44
2023/05/20 07:21:52;;;;;;;7.87;2.50;;;14.90;99.90;;;;;;5097811;28;20258;-44
2023/05/20 07:24:18;;;;;;;5.47;2.90;;;15.00;99.90;;;;;;5097117;28;20194;-46
2023/05/20 07:26:43;;;;;;;4.73;2.33;;;15.00;99.90;;;;;;5097537;28;20232;-44
2023/05/20 07:29:09;;;;;;;4.90;2.67;;;15.10;99.90;;;;;;5095777;28;20205;-46
2023/05/20 07:31:35;;;;;;;4.00;2.50;;;15.10;99.90;;;;;;5097070;28;20210;-44
2023/05/20 07:34:01;;;;;;;7.53;2.70;;;15.10;99.90;;;;;;5097172;28;20194;-45
2023/05/20 07:36:27;;;;;;;4.57;2.27;;;15.10;99.90;;;;;;5097268;28;20187;-44
2023/05/20 07:38:53;;;;;;;6.60;2.60;;;15.10;99.90;;;;;;5097301;28;20658;-46
2023/05/20 07:41:20;;;;;;;9.43;2.40;;;15.20;99.90;;;;;;5097177;28;20174;-46
2023/05/20 07:43:45;;;;;;;4.63;2.20;;;15.30;99.90;;;;;;5096758;28;20286;-44
2023/05/20 07:46:11;;;;;;;3.77;2.37;;;15.40;99.90;;;;;;5097325;28;20285;-46
2023/05/20 07:48:37;;;;;;;5.43;2.67;;;15.40;99.90;;;;;;5097211;28;20685;-44
2023/05/20 07:51:02;;;;;;;3.47;2.70;;;15.50;99.90;;;;;;5096987;28;20259;-47
2023/05/20 07:53:28;;;;;;;4.87;2.53;;;15.60;99.90;;;;;;5097085;28;20199;-45
2023/05/20 07:55:55;;;;;;;5.03;2.67;;;15.60;99.90;;;;;;5096647;28;20171;-46
2023/05/20 07:58:20;;;;;;;5.07;2.57;;;15.70;99.90;;;;;;5096499;28;20663;-45
2023/05/20 08:00:46;;;;;;;6.20;2.93;;;15.90;99.90;;;;;;5096771;28;20186;-44
2023/05/20 08:03:12;;;;;;;3.63;2.57;;;16.10;99.90;;;;;;5096648;28;20199;-45
2023/05/20 08:05:39;;;;;;;5.90;2.50;;;16.20;99.90;;;;;;5096635;28;20623;-45
2023/05/20 08:08:05;;;;;;;6.00;3.00;;;16.30;99.90;;;;;;5096588;28;20202;-48
2023/05/20 08:10:31;;;;;;;3.50;2.63;;;16.30;99.90;;;;;;5096609;28;20173;-45
2023/05/20 08:12:56;;;;;;;2.47;2.03;;;16.30;99.90;;;;;;5096156;28;20531;-45
2023/05/20 08:15:22;;;;;;;3.50;2.83;;;16.30;99.90;;;;;;5096264;28;20171;-46
2023/05/20 08:17:47;;;;;;;5.70;2.87;;;16.30;99.90;;;;;;5096720;28;20178;-46
2023/05/20 08:20:13;;;;;;;4.17;2.53;;;16.40;99.90;;;;;;5096223;28;20228;-45
2023/05/20 08:22:39;;;;;;;5.70;2.90;;;16.30;99.90;;;;;;5096303;28;20328;-47
2023/05/20 08:25:07;;;;;;;5.27;2.63;;;16.40;99.90;;;;;;5095182;28;20187;-46
2023/05/20 08:27:34;;;;;;;5.50;2.70;;;16.50;99.90;;;;;;5095881;28;20183;-46
2023/05/20 08:30:00;;;;;;;7.97;2.87;;;16.60;99.90;;;;;;5096029;28;20179;-44
2023/05/20 08:32:25;;;;;;;3.73;2.50;;;16.80;99.90;;;;;;5095397;28;20179;-46
2023/05/20 08:34:51;;;;;;;8.60;2.60;;;16.90;99.90;;;;;;5096164;28;20214;-47
2023/05/20 08:37:16;;;;;;;7.67;2.70;;;17.00;99.90;;;;;;5094578;28;20179;-46
2023/05/20 08:39:45;;;;;;;4.73;2.70;;;17.10;99.90;;;;;;5095729;28;20205;-45
2023/05/20 08:42:12;;;;;;;5.07;2.83;;;17.20;99.90;;;;;;5096067;28;20216;-46
2023/05/20 08:44:39;;;;;;;5.03;2.83;;;17.30;99.90;;;;;;5095558;28;20202;-44
2023/05/20 08:47:06;;;;;;;4.77;2.50;;;17.20;99.90;;;;;;5096075;28;20195;-45
2023/05/20 08:49:32;;;;;;;10.17;2.90;;;17.30;99.90;;;;;;5095542;28;20203;-45
2023/05/20 08:51:59;;;;;;;8.60;2.70;;;17.50;99.90;;;;;;5095774;28;20526;-48
2023/05/20 08:54:32;;;;;;;9.40;3.27;;;17.50;99.90;;;;;;5095725;28;20663;-47
2023/05/20 08:56:59;;;;;;;8.73;3.37;;;17.50;99.90;;;;;;5095710;28;20159;-46
2023/05/20 08:59:25;;;;;;;10.53;3.93;;;17.50;99.90;;;;;;5096074;28;20276;-47
2023/05/20 09:01:50;;;;;;;4.33;2.77;;;17.50;99.90;;;;;;5095290;28;20191;-47
2023/05/20 09:04:16;;;;;;;8.70;2.87;;;17.40;99.90;;;;;;5095335;28;20248;-46
2023/05/20 09:06:45;;;;;;;8.53;3.17;;;17.40;99.90;;;;;;5095535;28;20274;-47
2023/05/20 09:09:12;;;;;;;7.10;2.50;;;17.40;99.90;;;;;;5095411;28;20231;-44
2023/05/20 09:11:40;;;;;;;5.13;2.70;;;17.30;99.90;;;;;;5095458;28;20632;-45
2023/05/20 09:14:05;;;;;;;4.17;3.00;;;17.40;99.90;;;;;;5095292;28;20191;-52
2023/05/20 09:16:31;;;;;;;13.33;3.30;;;17.40;99.90;;;;;;5095256;28;20186;-52
2023/05/20 09:18:57;;;;;;;3.40;3.00;;;17.50;99.90;;;;;;5095008;28;20254;-52
2023/05/20 09:21:27;;;;;;;6.07;3.07;;;17.50;99.90;;;;;;5093628;28;20183;-50
2023/05/20 09:23:53;;;;;;;4.83;2.90;;;17.50;99.90;;;;;;5094807;28;20563;-52
2023/05/20 09:26:19;;;;;;;8.40;3.40;;;17.60;99.90;;;;;;5094751;28;20183;-52
2023/05/20 09:28:45;;;;;;;14.90;3.60;;;17.70;99.90;;;;;;5094625;28;20203;-52
2023/05/20 09:31:13;;;;;;;7.07;3.27;;;17.80;99.90;;;;;;5094983;28;20171;-52
2023/05/20 09:33:39;;;;;;;6.07;3.53;;;17.90;99.90;;;;;;5094566;28;20199;-52
2023/05/20 09:36:10;;;;;;;8.93;3.40;;;17.90;99.90;;;;;;5095086;28;20179;-51
2023/05/20 09:38:38;;;;;;;10.77;3.60;;;17.90;99.90;;;;;;5094601;28;20380;-52
2023/05/20 09:41:07;;;;;;;5.57;3.30;;;18.00;99.90;;;;;;5094891;28;20171;-51
2023/05/20 09:43:34;;;;;;;14.33;4.13;;;18.00;99.90;;;;;;5094353;28;20259;-52
2023/05/20 09:46:01;;;;;;;8.07;2.87;;;18.00;99.90;;;;;;5094503;28;20170;-51
2023/05/20 09:48:27;;;;;;;4.47;3.33;;;18.00;99.90;;;;;;5094403;28;20605;-52
2023/05/20 09:50:55;;;;;;;9.40;3.23;;;18.00;99.90;;;;;;5094373;28;20262;-51
2023/05/20 09:53:22;;;;;;;6.90;3.97;;;18.10;99.90;;;;;;5094832;28;20651;-52
2023/05/20 09:55:49;;;;;;;7.23;3.60;;;18.30;99.90;;;;;;5092942;28;20231;-52
2023/05/20 09:58:18;;;;;;;4.83;3.10;;;18.50;99.90;;;;;;5094467;28;20175;-50
2023/05/20 10:00:44;;;;;;;9.00;3.43;;;18.60;99.90;;;;;;5094117;28;20654;-51
2023/05/20 10:03:10;;;;;;;7.60;3.67;;;18.60;99.90;;;;;;5094259;28;20240;-51
2023/05/20 10:05:42;;;;;;;6.27;3.37;;;18.70;99.90;;;;;;5094353;28;20251;-50
2023/05/20 10:08:42;;;;;;;4.87;3.13;;;18.70;99.90;;;;;;5094535;28;20186;-52
2023/05/20 10:11:37;;;;;;;6.17;3.30;;;18.80;99.90;;;;;;5094327;28;20166;-51
2023/05/20 10:14:27;;;;;;;6.67;3.83;;;19.00;99.90;;;;;;5094128;28;20255;-51
2023/05/20 10:17:15;;;;;;;6.53;3.67;;;19.00;99.90;;;;;;5094269;28;20634;-51
2023/05/20 10:19:41;;;;;;;8.73;3.93;;;19.00;99.90;;;;;;5094238;28;20175;-51
2023/05/20 10:22:09;;;;;;;6.37;3.70;;;19.10;99.90;;;;;;5094380;28;20261;-52
2023/05/20 10:24:42;;;;;;;9.00;3.40;;;19.30;99.90;;;;;;5093968;28;20298;-52
2023/05/20 10:27:14;;;;;;;6.70;3.50;;;19.40;99.90;;;;;;5093833;28;20186;-51
2023/05/20 10:29:53;;;;;;;6.10;3.87;;;19.40;99.90;;;;;;5093936;28;20241;-53
2023/05/20 10:32:32;;;;;;;5.50;3.00;;;19.50;99.90;;;;;;5092409;28;20182;-52
2023/05/20 10:35:03;;;;;;;5.70;3.40;;;19.50;99.90;;;;;;5093668;28;20210;-52
2023/05/20 10:37:43;;;;;;;6.40;3.67;;;19.50;99.90;;;;;;5093515;28;20186;-51
2023/05/20 10:40:14;;;;;;;8.53;3.60;;;19.60;99.90;;;;;;5093560;28;20276;-51
2023/05/20 10:42:41;;;;;;;10.00;3.87;;;19.60;99.90;;;;;;5093476;28;20259;-51
2023/05/20 10:45:07;;;;;;;4.70;3.37;;;19.70;99.90;;;;;;5093510;28;20194;-52
2023/05/20 10:47:34;;;;;;;4.67;3.30;;;19.40;99.90;;;;;;5093349;28;20640;-51
2023/05/20 10:50:04;;;;;;;5.20;3.53;;;19.40;99.90;;;;;;5093925;28;20183;-52
2023/05/20 10:52:35;;;;;;;7.60;3.63;;;19.60;99.90;;;;;;5093464;28;20650;-52
2023/05/20 10:55:03;;;;;;;5.17;3.40;;;19.80;99.90;;;;;;5093747;28;20175;-53
2023/05/20 10:57:30;;;;;;;7.37;3.50;;;19.90;99.90;;;;;;5093732;28;20182;-52
2023/05/20 10:59:56;;;;;;;5.63;3.43;;;19.80;99.90;;;;;;5093673;28;20183;-52
2023/05/20 11:02:25;;;;;;;5.27;3.87;;;19.80;99.90;;;;;;5093635;28;20309;-51
2023/05/20 11:04:52;;;;;;;7.13;3.37;;;19.70;99.90;;;;;;5093623;28;20267;-52
2023/05/20 11:07:28;;;;;;;5.23;3.43;;;19.70;99.90;;;;;;5093661;28;20541;-52
2023/05/20 11:09:58;;;;;;;7.30;3.80;;;19.70;99.90;;;;;;5093224;28;20225;-52
2023/05/20 11:12:25;;;;;;;6.90;3.60;;;19.60;99.90;;;;;;5093312;28;20170;-51
2023/05/20 11:14:51;;;;;;;5.73;3.50;;;19.50;99.90;;;;;;5093316;28;20544;-52
2023/05/20 11:17:18;;;;;;;11.10;3.63;;;19.50;99.90;;;;;;5093461;28;20189;-51
2023/05/20 11:19:44;;;;;;;6.27;3.80;;;19.60;99.90;;;;;;5091870;28;20179;-50
2023/05/20 11:22:10;;;;;;;8.53;3.50;;;19.70;99.90;;;;;;5093421;28;20531;-52
2023/05/20 11:24:36;;;;;;;5.70;3.30;;;19.70;99.90;;;;;;5093290;28;20217;-52
2023/05/20 11:27:03;;;;;;;5.23;3.40;;;19.70;99.90;;;;;;5093063;28;20186;-51
2023/05/20 11:29:31;;;;;;;5.10;3.70;;;19.60;99.90;;;;;;5093229;28;20214;-51
2023/05/20 11:31:56;;;;;;;5.83;3.73;;;19.60;99.90;;;;;;5091782;28;20239;-50
2023/05/20 11:34:22;;;;;;;5.20;3.40;;;19.60;99.90;;;;;;5093272;28;20203;-50
2023/05/20 11:36:55;;;;;;;6.63;3.70;;;19.60;99.90;;;;;;5093541;28;20178;-49
2023/05/20 11:39:21;;;;;;;6.80;3.90;;;19.60;99.90;;;;;;5093108;28;20191;-50
2023/05/20 11:41:46;;;;;;;4.57;3.27;;;19.60;99.90;;;;;;5092975;28;20722;-50
2023/05/20 11:44:12;;;;;;;10.23;4.13;;;19.70;99.90;;;;;;5092935;28;20282;-51
2023/05/20 11:46:42;;;;;;;11.50;4.03;;;19.90;99.90;;;;;;5092955;28;20639;-51
2023/05/20 11:49:08;;;;;;;5.03;3.93;;;19.90;99.90;;;;;;5092891;28;20577;-50
2023/05/20 11:51:36;;;;;;;8.00;3.93;;;19.80;99.90;;;;;;5092928;28;20178;-52
2023/05/20 11:54:03;;;;;;;11.80;4.83;;;19.70;99.90;;;;;;5093106;28;20214;-51
2023/05/20 11:56:30;;;;;;;7.33;3.93;;;19.70;99.90;;;;;;5092831;28;20179;-50
2023/05/20 11:59:00;;;;;;;10.97;3.67;;;19.70;99.90;;;;;;5093924;28;20198;-49
2023/05/20 12:01:28;;;;;;;7.77;3.93;;;19.70;99.90;;;;;;5095944;28;20186;-50
2023/05/20 12:03:53;;;;;;;12.23;4.50;;;19.70;99.90;;;;;;5096355;28;20329;-50
2023/05/20 12:06:19;;;;;;;8.83;4.03;;;19.60;99.90;;;;;;5096427;28;20249;-51
2023/05/20 12:08:46;;;;;;;6.23;3.97;;;19.70;99.90;;;;;;5096565;28;20214;-50
2023/05/20 12:11:11;;;;;;;6.63;3.60;;;19.90;99.90;;;;;;5095851;28;20513;-50
2023/05/20 12:13:38;;;;;;;4.67;3.73;;;19.90;99.90;;;;;;5096202;28;20205;-51
2023/05/20 12:16:04;;;;;;;8.50;4.10;;;19.80;99.90;;;;;;5096499;28;20177;-51
2023/05/20 12:18:31;;;;;;;8.90;3.67;;;19.70;99.90;;;;;;5096149;28;20713;-50
2023/05/20 12:20:57;;;;;;;5.33;4.70;;;19.70;99.90;;;;;;5096466;28;20182;-51
2023/05/20 12:23:23;;;;;;;7.23;3.77;;;19.80;99.90;;;;;;5096065;28;20263;-51
2023/05/20 12:25:49;;;;;;;6.33;3.90;;;19.80;99.90;;;;;;5096096;28;20579;-51
2023/05/20 12:28:16;;;;;;;8.30;3.80;;;19.90;99.90;;;;;;5096793;28;20212;-50
2023/05/20 12:30:42;;;;;;;6.30;3.70;;;20.10;99.90;;;;;;5096227;28;20312;-50
2023/05/20 12:33:08;;;;;;;9.20;4.57;;;20.20;99.90;;;;;;5095838;28;20191;-50
2023/05/20 12:35:42;;;;;;;7.33;4.73;;;20.50;99.90;;;;;;5096119;28;20189;-51
2023/05/20 12:38:08;;;;;;;9.87;4.73;;;20.60;99.90;;;;;;5095785;28;20268;-49
2023/05/20 12:40:34;;;;;;;9.33;4.13;;;20.60;99.90;;;;;;5095657;28;20557;-51
2023/05/20 12:43:01;;;;;;;4.93;4.43;;;20.70;99.90;;;;;;5095856;28;20279;-49